Have a Safe July 4th! 

Flight Track Log - Related Links

Times and Time Zones

All times are in EDT time to prevent confusion due to time zone crossing. See the JIA2558 flight status page for this flight to view local times or setup timezone preferences in your user account.

Time Position Orientation Groundspeed Altitude Reporting Facility
EDT Latitude Longitude Course Direction KTS MPH feet Rate Location/Type
Mon 08:20:03 AM 41.5556 -93.6686 270° West 168 193 1,500  Level Minneapolis Center
Mon 08:20:39 AM 41.5556 -93.7075 191° South 173 199 2,900 2,289 Climbing Minneapolis Center
Mon 08:21:40 AM 41.5014 -93.7211 161° South 211 243 5,200 2,313 Climbing Minneapolis Center
Mon 08:23:51 AM 41.3811 -93.6647 115° Southeast 235 270 10,300 1,916 Climbing Chicago Center
Mon 08:24:51 AM 41.3472 -93.5683 116° Southeast 264 304 11,300 1,300 Climbing Chicago Center
Mon 08:25:51 AM 41.3075 -93.4581 115° Southeast 302 348 12,900 1,800 Climbing Chicago Center
Mon 08:26:51 AM 41.2678 -93.3450 135° Southeast 319 367 14,900 1,950 Climbing Chicago Center
Mon 08:27:51 AM 41.2039 -93.2611 138° Southeast 324 373 16,800 1,650 Climbing Chicago Center
Mon 08:28:51 AM 41.1339 -93.1769 138° Southeast 329 379 18,200 1,450 Climbing Chicago Center
Mon 08:29:51 AM 41.0636 -93.0928 139° Southeast 334 384 19,700 1,350 Climbing Chicago Center
Mon 08:30:51 AM 40.9933 -93.0117 139° Southeast 340 391 20,900 1,100 Climbing Chicago Center
Mon 08:31:51 AM 40.9189 -92.9253 135° Southeast 350 403 21,900 1,000 Climbing Chicago Center
Mon 08:32:51 AM 40.8447 -92.8278 133° Southeast 361 415 22,900 1,059 Climbing Chicago Center
Mon 08:34:24 AM 40.7314 -92.6694 133° Southeast 364 419 24,600 1,059 Climbing Kansas City Center
Mon 08:35:24 AM 40.6589 -92.5675 136° Southeast 376 433 25,600 950 Climbing Kansas City Center
Mon 08:36:24 AM 40.5781 -92.4633 132° Southeast 382 440 26,500 1,050 Climbing Kansas City Center
Mon 08:37:24 AM 40.5056 -92.3561 134° Southeast 377 434 27,700 1,050 Climbing Kansas City Center
Mon 08:38:24 AM 40.4414 -92.2683 134° Southeast 372 428 28,600 950 Climbing Kansas City Center
Mon 08:39:24 AM 40.3644 -92.1644 134° Southeast 367 422 29,600 700 Climbing Kansas City Center
Mon 08:40:24 AM 40.2939 -92.0689 134° Southeast 367 422 30,000 350 Climbing Kansas City Center
Mon 08:41:24 AM 40.2208 -91.9708 134° Southeast 372 428 30,300 400 Climbing Kansas City Center
Mon 08:42:24 AM 40.1458 -91.8678 135° Southeast 372 428 30,800 500 Climbing Kansas City Center
Mon 08:43:24 AM 40.0706 -91.7703 134° Southeast 372 428 31,300 500 Climbing Kansas City Center
Mon 08:44:24 AM 40.0019 -91.6781 134° Southeast 377 434 31,800 500 Climbing Kansas City Center
Mon 08:45:24 AM 39.9264 -91.5756 134° Southeast 382 440 32,300 500 Climbing Kansas City Center
Mon 08:46:24 AM 39.8531 -91.4758 135° Southeast 382 440 32,800 500 Climbing Kansas City Center
Mon 08:47:24 AM 39.7778 -91.3792 133° Southeast 382 440 33,300 500 Climbing Kansas City Center
Mon 08:48:24 AM 39.7042 -91.2772 135° Southeast 382 440 33,800 500 Climbing Kansas City Center
Mon 08:49:24 AM 39.6286 -91.1808 134° Southeast 382 440 34,300 450 Climbing Kansas City Center
Mon 08:50:24 AM 39.5572 -91.0847 134° Southeast 377 434 34,700 350 Climbing Kansas City Center
Mon 08:51:24 AM 39.4856 -90.9886 136° Southeast 372 428 35,000 150 Climbing Kansas City Center
Mon 08:52:24 AM 39.4033 -90.8850 136° Southeast 367 422 35,000  Level Kansas City Center
Mon 08:53:24 AM 39.3317 -90.7947 135° Southeast 381 438 35,000  Level Kansas City Center
Mon 08:54:24 AM 39.2469 -90.6839 133° Southeast 386 444 35,000  Level Kansas City Center
Mon 08:55:24 AM 39.1706 -90.5781 135° Southeast 397 457 35,000  Level Kansas City Center
Mon 08:56:24 AM 39.0986 -90.4856 136° Southeast 407 468 35,000  Level Kansas City Center
Mon 08:57:24 AM 39.0072 -90.3706 136° Southeast 413 475 35,000  Level Kansas City Center
Mon 08:58:24 AM 38.9308 -90.2761 135° Southeast 418 481 35,000  Level Kansas City Center
Mon 08:59:24 AM 38.8414 -90.1611 135° Southeast 424 488 35,000  Level Kansas City Center
Mon 09:00:24 AM 38.7647 -90.0619 136° Southeast 424 488 35,000  Level Kansas City Center
Mon 09:01:24 AM 38.6706 -89.9453 135° Southeast 424 488 35,000  Level Kansas City Center
Mon 09:02:24 AM 38.5917 -89.8439 135° Southeast 429 494 35,000  Level Kansas City Center
Mon 09:03:24 AM 38.4972 -89.7225 136° Southeast 437 503 35,000  Level Kansas City Center
Mon 09:04:24 AM 38.4114 -89.6167 136° Southeast 431 496 35,000  Level Kansas City Center
Mon 09:05:24 AM 38.3281 -89.5136 136° Southeast 424 488 35,000  Level Kansas City Center
Mon 09:06:24 AM 38.2422 -89.4086 135° Southeast 424 488 35,000  Level Kansas City Center
Mon 09:07:24 AM 38.1606 -89.3058 135° Southeast 424 488 35,000  Level Kansas City Center
Mon 09:08:24 AM 38.0744 -89.1983 138° Southeast 424 488 35,000  Level Kansas City Center
Mon 09:09:24 AM 37.9864 -89.0967 136° Southeast 424 488 35,000  Level Kansas City Center
Mon 09:10:24 AM 37.9003 -88.9897 135° Southeast 424 488 35,000  Level Kansas City Center
Mon 09:12:41 AM 37.7172 -88.7606 135° Southeast 421 484 35,000  Level Memphis Center
Mon 09:13:41 AM 37.6306 -88.6522 136° Southeast 433 498 35,000  Level Memphis Center
Mon 09:14:41 AM 37.5414 -88.5444 137° Southeast 433 498 35,000  Level Memphis Center
Mon 09:15:41 AM 37.4525 -88.4394 135° Southeast 433 498 35,000  Level Memphis Center
Mon 09:16:41 AM 37.3631 -88.3267 136° Southeast 438 504 35,000  Level Memphis Center
Mon 09:17:41 AM 37.2758 -88.2194 132° Southeast 438 504 35,000  Level Memphis Center
Mon 09:18:41 AM 37.1883 -88.0969 132° Southeast 446 513 35,000  Level Memphis Center
Mon 09:19:41 AM 37.1028 -87.9797 132° Southeast 462 532 35,000  Level Memphis Center
Mon 09:20:41 AM 37.0108 -87.8525 119° Southeast 462 532 35,000  Level Memphis Center
Mon 09:21:41 AM 36.9494 -87.7117 115° Southeast 457 526 35,000  Level Memphis Center
Mon 09:22:41 AM 36.8964 -87.5681 116° Southeast 449 517 35,000  Level Memphis Center
Mon 09:23:41 AM 36.8408 -87.4275 117° Southeast 449 517 35,000  Level Memphis Center
Mon 09:24:41 AM 36.7833 -87.2872 115° Southeast 449 517 35,000  Level Memphis Center
Mon 09:25:41 AM 36.7297 -87.1442 117° Southeast 449 517 35,000  Level Memphis Center
Mon 09:26:41 AM 36.6717 -87.0017 115° Southeast 449 517 35,000  Level Memphis Center
Mon 09:27:41 AM 36.6178 -86.8592 117° Southeast 449 517 35,000  Level Memphis Center
Mon 09:28:41 AM 36.5664 -86.7347 117° Southeast 449 517 35,000  Level Memphis Center
Mon 09:29:41 AM 36.5078 -86.5903 117° Southeast 455 524 35,000  Level Memphis Center
Mon 09:30:41 AM 36.4492 -86.4486 117° Southeast 460 529 35,000  Level Memphis Center
Mon 09:31:41 AM 36.3858 -86.2917 117° Southeast 460 529 35,000  Level Memphis Center
Mon 09:32:41 AM 36.3289 -86.1503 117° Southeast 460 529 35,000  Level Memphis Center
Mon 09:33:41 AM 36.2700 -86.0067 118° Southeast 460 529 35,000  Level Memphis Center
Mon 09:35:53 AM 36.1469 -85.7153 118° Southeast 479 551 35,000  Level Atlanta Center
Mon 09:36:52 AM 36.0864 -85.5728 111° Southeast 479 551 35,000  Level Atlanta Center
Mon 09:37:52 AM 36.0400 -85.4203 96° East 473 544 35,000  Level Atlanta Center
Mon 09:38:52 AM 36.0272 -85.2633 96° East 462 532 35,000  Level Atlanta Center
Mon 09:39:52 AM 36.0142 -85.1014 94° East 462 532 35,000  Level Atlanta Center
Mon 09:40:52 AM 36.0031 -84.9242 97° East 468 539 35,000  Level Atlanta Center
Mon 09:41:52 AM 35.9853 -84.7572 97° East 475 547 35,000  Level Atlanta Center
Mon 09:42:52 AM 35.9694 -84.5956 96° East 475 547 35,000 -50 Level Atlanta Center
Mon 09:43:52 AM 35.9556 -84.4389 96° East 475 547 34,900 -300 Descending Atlanta Center
Mon 09:44:52 AM 35.9411 -84.2797 97° East 475 547 34,400 -500 Descending Atlanta Center
Mon 09:45:52 AM 35.9247 -84.1233 96° East 463 533 33,900 -500 Descending Atlanta Center
Mon 09:46:52 AM 35.9122 -83.9694 94° East 463 533 33,400 -600 Descending Atlanta Center
Mon 09:47:52 AM 35.9036 -83.8131 92° East 458 527 32,700 -1,150 Descending Atlanta Center
Mon 09:48:52 AM 35.8992 -83.6594 90° East 458 527 31,100 -1,550 Descending Atlanta Center
Mon 09:49:52 AM 35.8986 -83.5031 92° East 458 527 29,600 -1,050 Descending Atlanta Center
Mon 09:50:52 AM 35.8936 -83.3492 92° East 458 527 29,000 -500 Descending Atlanta Center
Mon 09:51:52 AM 35.8886 -83.1981 92° East 453 521 28,600 -1,000 Descending Atlanta Center
Mon 09:52:52 AM 35.8853 -83.0494 92° East 443 510 27,000 -1,600 Descending Atlanta Center
Mon 09:53:52 AM 35.8819 -82.8983 91° East 438 504 25,400 -1,500 Descending Atlanta Center
Mon 09:54:52 AM 35.8806 -82.7497 93° East 438 504 24,000 -700 Descending Atlanta Center
Mon 09:55:52 AM 35.8747 -82.6114 91° East 418 481 24,000  Level Atlanta Center
Mon 09:56:52 AM 35.8731 -82.4756 97° East 396 456 24,000  Level Atlanta Center
Mon 09:57:52 AM 35.8589 -82.3425 112° Southeast 396 456 24,000 -450 Level Atlanta Center
Mon 09:58:52 AM 35.8194 -82.2206 112° Southeast 383 441 23,100 -1,800 Descending Atlanta Center
Mon 09:59:52 AM 35.7800 -82.0986 114° Southeast 378 435 20,400 -2,550 Descending Atlanta Center
Mon 10:00:52 AM 35.7364 -81.9767 113° Southeast 378 435 18,000 -2,492 Descending Atlanta Center
Mon 10:01:50 AM 35.6969 -81.8628 111° Southeast 377 434 15,500 -2,400 Descending Atlanta Center
Mon 10:02:52 AM 35.6636 -81.7561 112° Southeast 373 429 13,200 -1,918 Descending Atlanta Center
Mon 10:03:52 AM 35.6261 -81.6422 121° Southeast 367 422 11,600 -1,100 Descending Atlanta Center
Mon 10:04:52 AM 35.5825 -81.5517 108° East 325 374 11,000 -900 Descending Atlanta Center
Mon 10:05:52 AM 35.5575 -81.4581 93° East 299 344 9,800 -1,450 Descending Atlanta Center
Mon 10:06:52 AM 35.5533 -81.3558 95° East 294 338 8,100 -1,400 Descending Atlanta Center
Mon 10:07:52 AM 35.5469 -81.2592 88° East 289 333 7,000 -900 Descending Atlanta Center
Mon 10:08:52 AM 35.5492 -81.1722 80° East 269 310 6,300 -650 Descending Atlanta Center
Mon 10:09:52 AM 35.5600 -81.0978 87° East 240 276 5,700 -800 Descending Atlanta Center
Mon 10:10:52 AM 35.5625 -81.0314 149° Southeast 207 238 4,700 -756 Descending Atlanta Center
Mon 10:12:07 AM 35.5136 -80.9950 177° South 174 200 4,000 -296 Descending Atlanta Center
Mon 10:13:14 AM 35.4592 -80.9919 174° South 171 197 4,000  Level Atlanta Center
Mon 10:14:09 AM 35.4153 -80.9858 177° South 173 199 4,000 -259 Level Atlanta Center
Mon 10:15:10 AM 35.3672 -80.9825 175° South 177 204 3,500 -703 Descending Atlanta Center
Mon 10:16:17 AM 35.3108 -80.9769 177° South 175 201 2,500 -884 Descending Atlanta Center
Mon 10:17:19 AM 35.2647 -80.9736 177° South 168 193 1,600 -871 Descending Atlanta Center

Login

Don't have an account? Register now (free) for customized features, flight alerts, and more!